sensor_id;sensor_type;location;lat;lon;timestamp;pressure;altitude;pressure_sealevel;temperature
13570;BMP180;6856;51.460;7.158;2023-03-14T00:01:45;97937.00;;;15.30
13570;BMP180;6856;51.460;7.158;2023-03-14T00:04:21;97961.00;;;15.30
13570;BMP180;6856;51.460;7.158;2023-03-14T00:06:56;97913.00;;;15.40
13570;BMP180;6856;51.460;7.158;2023-03-14T00:09:30;97918.00;;;15.40
13570;BMP180;6856;51.460;7.158;2023-03-14T00:12:06;97881.00;;;15.40
13570;BMP180;6856;51.460;7.158;2023-03-14T00:14:40;97900.00;;;15.30
13570;BMP180;6856;51.460;7.158;2023-03-14T00:17:16;97887.00;;;15.30
13570;BMP180;6856;51.460;7.158;2023-03-14T00:19:51;97836.00;;;15.30
13570;BMP180;6856;51.460;7.158;2023-03-14T00:22:28;97844.00;;;15.40
13570;BMP180;6856;51.460;7.158;2023-03-14T00:25:02;97845.00;;;15.40
13570;BMP180;6856;51.460;7.158;2023-03-14T00:27:37;97863.00;;;15.20
13570;BMP180;6856;51.460;7.158;2023-03-14T00:30:11;97881.00;;;15.30
13570;BMP180;6856;51.460;7.158;2023-03-14T00:32:45;97896.00;;;15.30
13570;BMP180;6856;51.460;7.158;2023-03-14T00:35:19;97902.00;;;15.30
13570;BMP180;6856;51.460;7.158;2023-03-14T00:37:56;97818.00;;;15.20
13570;BMP180;6856;51.460;7.158;2023-03-14T00:40:33;97929.00;;;15.30
13570;BMP180;6856;51.460;7.158;2023-03-14T00:43:08;97948.00;;;15.30
13570;BMP180;6856;51.460;7.158;2023-03-14T00:45:42;97913.00;;;15.30
13570;BMP180;6856;51.460;7.158;2023-03-14T00:48:16;97950.00;;;15.30
13570;BMP180;6856;51.460;7.158;2023-03-14T00:50:51;97951.00;;;15.30
13570;BMP180;6856;51.460;7.158;2023-03-14T00:53:26;97955.00;;;15.30
13570;BMP180;6856;51.460;7.158;2023-03-14T00:56:07;97977.00;;;15.30
13570;BMP180;6856;51.460;7.158;2023-03-14T00:58:42;97998.00;;;15.30
13570;BMP180;6856;51.460;7.158;2023-03-14T01:01:20;97999.00;;;15.30
13570;BMP180;6856;51.460;7.158;2023-03-14T01:03:55;98004.00;;;15.20
13570;BMP180;6856;51.460;7.158;2023-03-14T01:06:30;97980.00;;;15.10
13570;BMP180;6856;51.460;7.158;2023-03-14T01:09:06;97962.00;;;15.00
13570;BMP180;6856;51.460;7.158;2023-03-14T01:11:40;97985.00;;;14.90
13570;BMP180;6856;51.460;7.158;2023-03-14T01:14:15;97956.00;;;14.80
13570;BMP180;6856;51.460;7.158;2023-03-14T01:16:48;97918.00;;;14.60
13570;BMP180;6856;51.460;7.158;2023-03-14T01:19:23;97968.00;;;14.50
13570;BMP180;6856;51.460;7.158;2023-03-14T01:21:57;97922.00;;;14.40
13570;BMP180;6856;51.460;7.158;2023-03-14T01:24:34;97945.00;;;14.10
13570;BMP180;6856;51.460;7.158;2023-03-14T01:27:10;97942.00;;;14.30
13570;BMP180;6856;51.460;7.158;2023-03-14T01:29:44;97957.00;;;14.20
13570;BMP180;6856;51.460;7.158;2023-03-14T01:32:19;97958.00;;;14.10
13570;BMP180;6856;51.460;7.158;2023-03-14T01:34:53;97963.00;;;14.10
13570;BMP180;6856;51.460;7.158;2023-03-14T01:37:27;97959.00;;;14.10
13570;BMP180;6856;51.460;7.158;2023-03-14T01:40:08;97944.00;;;14.00
13570;BMP180;6856;51.460;7.158;2023-03-14T01:42:46;97937.00;;;14.00
13570;BMP180;6856;51.460;7.158;2023-03-14T01:46:21;97935.00;;;13.90
13570;BMP180;6856;51.460;7.158;2023-03-14T01:49:07;97914.00;;;13.90
13570;BMP180;6856;51.460;7.158;2023-03-14T01:51:48;97915.00;;;13.90
13570;BMP180;6856;51.460;7.158;2023-03-14T01:54:29;97927.00;;;13.80
13570;BMP180;6856;51.460;7.158;2023-03-14T01:57:12;97931.00;;;13.80
13570;BMP180;6856;51.460;7.158;2023-03-14T01:59:55;97913.00;;;13.80
13570;BMP180;6856;51.460;7.158;2023-03-14T02:02:30;97805.00;;;13.80
13570;BMP180;6856;51.460;7.158;2023-03-14T02:05:05;97922.00;;;13.80
13570;BMP180;6856;51.460;7.158;2023-03-14T02:07:47;97918.00;;;13.80
13570;BMP180;6856;51.460;7.158;2023-03-14T02:10:27;97921.00;;;13.80
13570;BMP180;6856;51.460;7.158;2023-03-14T02:13:06;97830.00;;;13.70
13570;BMP180;6856;51.460;7.158;2023-03-14T02:15:41;97908.00;;;13.70
13570;BMP180;6856;51.460;7.158;2023-03-14T02:18:16;97911.00;;;13.40
13570;BMP180;6856;51.460;7.158;2023-03-14T02:20:59;97909.00;;;13.60
13570;BMP180;6856;51.460;7.158;2023-03-14T02:23:43;97912.00;;;13.60
13570;BMP180;6856;51.460;7.158;2023-03-14T02:26:23;97903.00;;;13.60
13570;BMP180;6856;51.460;7.158;2023-03-14T02:29:04;97908.00;;;13.60
13570;BMP180;6856;51.460;7.158;2023-03-14T02:31:38;97913.00;;;13.60
13570;BMP180;6856;51.460;7.158;2023-03-14T02:34:13;97901.00;;;13.60
13570;BMP180;6856;51.460;7.158;2023-03-14T02:36:47;97900.00;;;13.60
13570;BMP180;6856;51.460;7.158;2023-03-14T02:39:29;97899.00;;;13.60
13570;BMP180;6856;51.460;7.158;2023-03-14T02:42:06;97895.00;;;13.60
13570;BMP180;6856;51.460;7.158;2023-03-14T02:45:33;97902.00;;;13.60
13570;BMP180;6856;51.460;7.158;2023-03-14T02:48:02;97915.00;;;13.60
13570;BMP180;6856;51.460;7.158;2023-03-14T02:50:39;97921.00;;;13.60
13570;BMP180;6856;51.460;7.158;2023-03-14T02:53:19;97900.00;;;13.50
13570;BMP180;6856;51.460;7.158;2023-03-14T02:55:54;97904.00;;;13.60
13570;BMP180;6856;51.460;7.158;2023-03-14T02:58:29;97891.00;;;13.60
13570;BMP180;6856;51.460;7.158;2023-03-14T03:01:06;97892.00;;;13.60
13570;BMP180;6856;51.460;7.158;2023-03-14T03:03:40;97895.00;;;13.50
13570;BMP180;6856;51.460;7.158;2023-03-14T03:06:15;97887.00;;;13.60
13570;BMP180;6856;51.460;7.158;2023-03-14T03:08:50;97881.00;;;13.60
13570;BMP180;6856;51.460;7.158;2023-03-14T03:11:24;97881.00;;;13.60
13570;BMP180;6856;51.460;7.158;2023-03-14T03:13:59;97874.00;;;13.60
13570;BMP180;6856;51.460;7.158;2023-03-14T03:16:35;97877.00;;;13.60
13570;BMP180;6856;51.460;7.158;2023-03-14T03:19:10;97881.00;;;13.60
13570;BMP180;6856;51.460;7.158;2023-03-14T03:21:45;97871.00;;;13.60
13570;BMP180;6856;51.460;7.158;2023-03-14T03:24:19;97852.00;;;13.60
13570;BMP180;6856;51.460;7.158;2023-03-14T03:26:53;97869.00;;;13.60
13570;BMP180;6856;51.460;7.158;2023-03-14T03:29:27;97874.00;;;13.60
13570;BMP180;6856;51.460;7.158;2023-03-14T03:32:02;97863.00;;;13.60
13570;BMP180;6856;51.460;7.158;2023-03-14T03:34:37;97876.00;;;13.60
13570;BMP180;6856;51.460;7.158;2023-03-14T03:37:10;97840.00;;;13.60
13570;BMP180;6856;51.460;7.158;2023-03-14T03:39:44;97866.00;;;13.60
13570;BMP180;6856;51.460;7.158;2023-03-14T03:42:19;97867.00;;;13.60
13570;BMP180;6856;51.460;7.158;2023-03-14T03:44:55;97864.00;;;13.60
13570;BMP180;6856;51.460;7.158;2023-03-14T03:47:30;97875.00;;;13.60
13570;BMP180;6856;51.460;7.158;2023-03-14T03:50:07;97877.00;;;13.60
13570;BMP180;6856;51.460;7.158;2023-03-14T03:52:43;97882.00;;;13.60
13570;BMP180;6856;51.460;7.158;2023-03-14T03:55:17;97881.00;;;13.60
13570;BMP180;6856;51.460;7.158;2023-03-14T03:57:52;97876.00;;;13.50
13570;BMP180;6856;51.460;7.158;2023-03-14T04:00:27;97795.00;;;13.60
13570;BMP180;6856;51.460;7.158;2023-03-14T04:03:05;97836.00;;;13.60
13570;BMP180;6856;51.460;7.158;2023-03-14T04:05:39;97803.00;;;13.60
13570;BMP180;6856;51.460;7.158;2023-03-14T04:08:13;97879.00;;;13.60
13570;BMP180;6856;51.460;7.158;2023-03-14T04:10:47;97873.00;;;13.60
13570;BMP180;6856;51.460;7.158;2023-03-14T04:13:22;97864.00;;;13.60
13570;BMP180;6856;51.460;7.158;2023-03-14T04:15:57;97874.00;;;13.60
13570;BMP180;6856;51.460;7.158;2023-03-14T04:18:33;97874.00;;;13.50
13570;BMP180;6856;51.460;7.158;2023-03-14T04:21:07;97856.00;;;13.50
13570;BMP180;6856;51.460;7.158;2023-03-14T04:23:41;97857.00;;;13.50
13570;BMP180;6856;51.460;7.158;2023-03-14T04:26:15;97866.00;;;13.40
13570;BMP180;6856;51.460;7.158;2023-03-14T04:28:50;97867.00;;;13.40
13570;BMP180;6856;51.460;7.158;2023-03-14T04:31:24;97873.00;;;13.40
13570;BMP180;6856;51.460;7.158;2023-03-14T04:34:01;97876.00;;;13.30
13570;BMP180;6856;51.460;7.158;2023-03-14T04:36:35;97881.00;;;13.30
13570;BMP180;6856;51.460;7.158;2023-03-14T04:39:11;97881.00;;;13.30
13570;BMP180;6856;51.460;7.158;2023-03-14T04:41:45;97864.00;;;13.20
13570;BMP180;6856;51.460;7.158;2023-03-14T04:44:20;97843.00;;;13.20
13570;BMP180;6856;51.460;7.158;2023-03-14T04:46:53;97877.00;;;13.20
13570;BMP180;6856;51.460;7.158;2023-03-14T04:49:29;97879.00;;;13.20
13570;BMP180;6856;51.460;7.158;2023-03-14T04:52:03;97864.00;;;13.20
13570;BMP180;6856;51.460;7.158;2023-03-14T04:54:37;97855.00;;;13.10
13570;BMP180;6856;51.460;7.158;2023-03-14T04:57:11;97850.00;;;13.10
13570;BMP180;6856;51.460;7.158;2023-03-14T04:59:45;97858.00;;;13.10
13570;BMP180;6856;51.460;7.158;2023-03-14T05:02:20;97854.00;;;13.00
13570;BMP180;6856;51.460;7.158;2023-03-14T05:04:55;97849.00;;;13.00
13570;BMP180;6856;51.460;7.158;2023-03-14T05:07:29;97833.00;;;13.00
13570;BMP180;6856;51.460;7.158;2023-03-14T05:10:04;97835.00;;;12.90
13570;BMP180;6856;51.460;7.158;2023-03-14T05:12:39;97828.00;;;12.90
13570;BMP180;6856;51.460;7.158;2023-03-14T05:15:13;97835.00;;;12.90
13570;BMP180;6856;51.460;7.158;2023-03-14T05:17:48;97829.00;;;12.80
13570;BMP180;6856;51.460;7.158;2023-03-14T05:20:24;97822.00;;;12.80
13570;BMP180;6856;51.460;7.158;2023-03-14T05:22:59;97824.00;;;12.80
13570;BMP180;6856;51.460;7.158;2023-03-14T05:25:32;97811.00;;;12.80
13570;BMP180;6856;51.460;7.158;2023-03-14T05:28:07;97802.00;;;12.80
13570;BMP180;6856;51.460;7.158;2023-03-14T05:30:41;97808.00;;;12.80
13570;BMP180;6856;51.460;7.158;2023-03-14T05:33:15;97790.00;;;12.80
13570;BMP180;6856;51.460;7.158;2023-03-14T05:35:52;97783.00;;;12.80
13570;BMP180;6856;51.460;7.158;2023-03-14T05:38:25;97780.00;;;12.80
13570;BMP180;6856;51.460;7.158;2023-03-14T05:41:00;97789.00;;;12.80
13570;BMP180;6856;51.460;7.158;2023-03-14T05:43:34;97788.00;;;12.80
13570;BMP180;6856;51.460;7.158;2023-03-14T05:46:08;97741.00;;;12.80
13570;BMP180;6856;51.460;7.158;2023-03-14T05:48:42;97720.00;;;12.80
13570;BMP180;6856;51.460;7.158;2023-03-14T05:51:17;97741.00;;;12.90
13570;BMP180;6856;51.460;7.158;2023-03-14T05:53:52;97776.00;;;12.90
13570;BMP180;6856;51.460;7.158;2023-03-14T05:56:26;97769.00;;;12.80
13570;BMP180;6856;51.460;7.158;2023-03-14T05:58:59;97770.00;;;12.90
13570;BMP180;6856;51.460;7.158;2023-03-14T06:01:35;97778.00;;;12.90
13570;BMP180;6856;51.460;7.158;2023-03-14T06:04:10;97775.00;;;12.90
13570;BMP180;6856;51.460;7.158;2023-03-14T06:06:45;97713.00;;;12.90
13570;BMP180;6856;51.460;7.158;2023-03-14T06:09:20;97716.00;;;12.90
13570;BMP180;6856;51.460;7.158;2023-03-14T06:11:55;97773.00;;;12.90
13570;BMP180;6856;51.460;7.158;2023-03-14T06:14:29;97775.00;;;12.90
13570;BMP180;6856;51.460;7.158;2023-03-14T06:17:03;97775.00;;;12.90
13570;BMP180;6856;51.460;7.158;2023-03-14T06:19:37;97778.00;;;12.90
13570;BMP180;6856;51.460;7.158;2023-03-14T06:22:13;97727.00;;;12.90
13570;BMP180;6856;51.460;7.158;2023-03-14T06:24:47;97782.00;;;13.00
13570;BMP180;6856;51.460;7.158;2023-03-14T06:27:21;97777.00;;;12.90
13570;BMP180;6856;51.460;7.158;2023-03-14T06:29:55;97736.00;;;12.90
13570;BMP180;6856;51.460;7.158;2023-03-14T06:32:29;97780.00;;;12.90
13570;BMP180;6856;51.460;7.158;2023-03-14T06:35:03;97783.00;;;12.90
13570;BMP180;6856;51.460;7.158;2023-03-14T06:37:39;97793.00;;;13.00
13570;BMP180;6856;51.460;7.158;2023-03-14T06:40:13;97779.00;;;13.00
13570;BMP180;6856;51.460;7.158;2023-03-14T06:42:50;97792.00;;;13.00
13570;BMP180;6856;51.460;7.158;2023-03-14T06:45:23;97799.00;;;13.00
13570;BMP180;6856;51.460;7.158;2023-03-14T06:47:57;97781.00;;;13.00
13570;BMP180;6856;51.460;7.158;2023-03-14T06:50:32;97789.00;;;13.00
13570;BMP180;6856;51.460;7.158;2023-03-14T06:53:07;97791.00;;;12.90
13570;BMP180;6856;51.460;7.158;2023-03-14T06:55:42;97795.00;;;13.00
13570;BMP180;6856;51.460;7.158;2023-03-14T06:58:18;97801.00;;;13.00
13570;BMP180;6856;51.460;7.158;2023-03-14T07:00:53;97794.00;;;13.00
13570;BMP180;6856;51.460;7.158;2023-03-14T07:03:29;97795.00;;;13.00
13570;BMP180;6856;51.460;7.158;2023-03-14T07:06:04;97790.00;;;13.10
13570;BMP180;6856;51.460;7.158;2023-03-14T07:08:39;97806.00;;;13.10
13570;BMP180;6856;51.460;7.158;2023-03-14T07:11:14;97799.00;;;13.10
13570;BMP180;6856;51.460;7.158;2023-03-14T07:13:48;97802.00;;;13.10
13570;BMP180;6856;51.460;7.158;2023-03-14T07:16:23;97800.00;;;13.10
13570;BMP180;6856;51.460;7.158;2023-03-14T07:19:02;97788.00;;;13.10
13570;BMP180;6856;51.460;7.158;2023-03-14T07:21:36;97802.00;;;13.20
13570;BMP180;6856;51.460;7.158;2023-03-14T07:24:12;97786.00;;;13.20
13570;BMP180;6856;51.460;7.158;2023-03-14T07:26:47;97792.00;;;13.20
13570;BMP180;6856;51.460;7.158;2023-03-14T07:29:22;97756.00;;;13.30
13570;BMP180;6856;51.460;7.158;2023-03-14T07:31:55;97800.00;;;13.30
13570;BMP180;6856;51.460;7.158;2023-03-14T07:34:29;97802.00;;;13.30
13570;BMP180;6856;51.460;7.158;2023-03-14T07:37:03;97809.00;;;13.30
13570;BMP180;6856;51.460;7.158;2023-03-14T07:39:39;97812.00;;;13.40
13570;BMP180;6856;51.460;7.158;2023-03-14T07:42:12;97804.00;;;13.40
13570;BMP180;6856;51.460;7.158;2023-03-14T07:44:47;97815.00;;;13.40
13570;BMP180;6856;51.460;7.158;2023-03-14T07:47:24;97810.00;;;13.40
13570;BMP180;6856;51.460;7.158;2023-03-14T07:49:58;97808.00;;;13.40
13570;BMP180;6856;51.460;7.158;2023-03-14T07:52:32;97823.00;;;13.40
13570;BMP180;6856;51.460;7.158;2023-03-14T07:55:10;97816.00;;;13.50
13570;BMP180;6856;51.460;7.158;2023-03-14T07:57:46;97774.00;;;13.50
13570;BMP180;6856;51.460;7.158;2023-03-14T08:00:22;97823.00;;;13.50
13570;BMP180;6856;51.460;7.158;2023-03-14T08:02:56;97798.00;;;13.50
13570;BMP180;6856;51.460;7.158;2023-03-14T08:05:30;97821.00;;;13.50
13570;BMP180;6856;51.460;7.158;2023-03-14T08:08:04;97823.00;;;13.50
13570;BMP180;6856;51.460;7.158;2023-03-14T08:10:40;97809.00;;;13.50
13570;BMP180;6856;51.460;7.158;2023-03-14T08:13:18;97793.00;;;13.50
13570;BMP180;6856;51.460;7.158;2023-03-14T08:15:53;97829.00;;;13.50
13570;BMP180;6856;51.460;7.158;2023-03-14T08:18:29;97825.00;;;13.60
13570;BMP180;6856;51.460;7.158;2023-03-14T08:21:03;97811.00;;;13.60
13570;BMP180;6856;51.460;7.158;2023-03-14T08:23:37;97822.00;;;13.60
13570;BMP180;6856;51.460;7.158;2023-03-14T08:26:13;97820.00;;;13.60
13570;BMP180;6856;51.460;7.158;2023-03-14T08:28:47;97826.00;;;13.60
13570;BMP180;6856;51.460;7.158;2023-03-14T08:31:22;97820.00;;;13.70
13570;BMP180;6856;51.460;7.158;2023-03-14T08:33:59;97824.00;;;13.70
13570;BMP180;6856;51.460;7.158;2023-03-14T08:36:35;97830.00;;;13.70
13570;BMP180;6856;51.460;7.158;2023-03-14T08:39:11;97826.00;;;13.70
13570;BMP180;6856;51.460;7.158;2023-03-14T08:41:49;97757.00;;;13.80
13570;BMP180;6856;51.460;7.158;2023-03-14T08:44:23;97834.00;;;13.80
13570;BMP180;6856;51.460;7.158;2023-03-14T08:46:58;97830.00;;;13.80
13570;BMP180;6856;51.460;7.158;2023-03-14T08:49:32;97832.00;;;13.80
13570;BMP180;6856;51.460;7.158;2023-03-14T08:52:07;97812.00;;;13.80
13570;BMP180;6856;51.460;7.158;2023-03-14T08:54:41;97765.00;;;13.90
13570;BMP180;6856;51.460;7.158;2023-03-14T08:57:18;97847.00;;;13.90
13570;BMP180;6856;51.460;7.158;2023-03-14T08:59:56;97835.00;;;13.90
13570;BMP180;6856;51.460;7.158;2023-03-14T09:02:31;97844.00;;;13.90
13570;BMP180;6856;51.460;7.158;2023-03-14T09:05:06;97848.00;;;13.90
13570;BMP180;6856;51.460;7.158;2023-03-14T09:07:42;97851.00;;;13.90
13570;BMP180;6856;51.460;7.158;2023-03-14T09:10:18;97861.00;;;13.90
13570;BMP180;6856;51.460;7.158;2023-03-14T09:12:54;97862.00;;;14.00
13570;BMP180;6856;51.460;7.158;2023-03-14T09:15:29;97856.00;;;13.90
13570;BMP180;6856;51.460;7.158;2023-03-14T09:18:04;97778.00;;;14.00
13570;BMP180;6856;51.460;7.158;2023-03-14T09:20:40;97860.00;;;13.90
13570;BMP180;6856;51.460;7.158;2023-03-14T09:23:14;97883.00;;;13.90
13570;BMP180;6856;51.460;7.158;2023-03-14T09:25:48;97884.00;;;13.90
13570;BMP180;6856;51.460;7.158;2023-03-14T09:28:25;97868.00;;;13.90
13570;BMP180;6856;51.460;7.158;2023-03-14T09:31:06;97899.00;;;13.90
13570;BMP180;6856;51.460;7.158;2023-03-14T09:33:41;97903.00;;;13.90
13570;BMP180;6856;51.460;7.158;2023-03-14T09:36:16;97942.00;;;13.90
13570;BMP180;6856;51.460;7.158;2023-03-14T09:38:51;97987.00;;;13.80
13570;BMP180;6856;51.460;7.158;2023-03-14T09:41:27;97978.00;;;13.70
13570;BMP180;6856;51.460;7.158;2023-03-14T09:44:10;97990.00;;;13.60
13570;BMP180;6856;51.460;7.158;2023-03-14T09:46:51;97994.00;;;13.50
13570;BMP180;6856;51.460;7.158;2023-03-14T09:49:30;98013.00;;;13.40
13570;BMP180;6856;51.460;7.158;2023-03-14T09:52:13;98028.00;;;13.30
13570;BMP180;6856;51.460;7.158;2023-03-14T09:54:51;98007.00;;;13.20
13570;BMP180;6856;51.460;7.158;2023-03-14T09:57:27;98047.00;;;13.10
13570;BMP180;6856;51.460;7.158;2023-03-14T10:00:14;98041.00;;;13.10
13570;BMP180;6856;51.460;7.158;2023-03-14T10:02:53;98051.00;;;13.00
13570;BMP180;6856;51.460;7.158;2023-03-14T10:05:28;98087.00;;;13.00
13570;BMP180;6856;51.460;7.158;2023-03-14T10:08:02;98097.00;;;12.90
13570;BMP180;6856;51.460;7.158;2023-03-14T10:10:36;98116.00;;;12.80
13570;BMP180;6856;51.460;7.158;2023-03-14T10:13:18;98120.00;;;12.70
13570;BMP180;6856;51.460;7.158;2023-03-14T10:16:01;98135.00;;;12.70
13570;BMP180;6856;51.460;7.158;2023-03-14T10:18:36;98138.00;;;12.70
13570;BMP180;6856;51.460;7.158;2023-03-14T10:21:21;98119.00;;;12.60
13570;BMP180;6856;51.460;7.158;2023-03-14T10:24:19;98146.00;;;12.60
13570;BMP180;6856;51.460;7.158;2023-03-14T10:26:57;98146.00;;;12.60
13570;BMP180;6856;51.460;7.158;2023-03-14T10:29:34;98158.00;;;12.60
13570;BMP180;6856;51.460;7.158;2023-03-14T10:32:33;98156.00;;;12.60
13570;BMP180;6856;51.460;7.158;2023-03-14T10:35:22;98181.00;;;12.60
13570;BMP180;6856;51.460;7.158;2023-03-14T10:37:59;98186.00;;;12.60
13570;BMP180;6856;51.460;7.158;2023-03-14T10:40:42;98200.00;;;12.60
13570;BMP180;6856;51.460;7.158;2023-03-14T10:43:25;98238.00;;;12.50
13570;BMP180;6856;51.460;7.158;2023-03-14T10:46:06;98228.00;;;12.40
13570;BMP180;6856;51.460;7.158;2023-03-14T10:48:44;98253.00;;;12.40
13570;BMP180;6856;51.460;7.158;2023-03-14T10:51:24;98273.00;;;12.30
13570;BMP180;6856;51.460;7.158;2023-03-14T10:54:03;98268.00;;;12.30
13570;BMP180;6856;51.460;7.158;2023-03-14T10:56:38;98313.00;;;12.20
13570;BMP180;6856;51.460;7.158;2023-03-14T10:59:15;98330.00;;;12.10
13570;BMP180;6856;51.460;7.158;2023-03-14T11:01:58;98347.00;;;12.10
13570;BMP180;6856;51.460;7.158;2023-03-14T11:04:55;98354.00;;;12.10
13570;BMP180;6856;51.460;7.158;2023-03-14T11:07:37;98380.00;;;12.00
13570;BMP180;6856;51.460;7.158;2023-03-14T11:10:20;98381.00;;;11.90
13570;BMP180;6856;51.460;7.158;2023-03-14T11:13:17;98403.00;;;11.80
13570;BMP180;6856;51.460;7.158;2023-03-14T11:16:02;98393.00;;;11.80
13570;BMP180;6856;51.460;7.158;2023-03-14T11:19:28;98433.00;;;11.80
13570;BMP180;6856;51.460;7.158;2023-03-14T11:22:23;98446.00;;;11.80
13570;BMP180;6856;51.460;7.158;2023-03-14T11:25:20;98455.00;;;11.80
13570;BMP180;6856;51.460;7.158;2023-03-14T11:28:04;98469.00;;;11.80
13570;BMP180;6856;51.460;7.158;2023-03-14T11:30:51;98484.00;;;11.80
13570;BMP180;6856;51.460;7.158;2023-03-14T11:33:34;98478.00;;;11.80
13570;BMP180;6856;51.460;7.158;2023-03-14T11:36:12;98487.00;;;11.80
13570;BMP180;6856;51.460;7.158;2023-03-14T11:38:52;98508.00;;;11.80
13570;BMP180;6856;51.460;7.158;2023-03-14T11:41:33;98506.00;;;11.80
13570;BMP180;6856;51.460;7.158;2023-03-14T11:44:18;98518.00;;;11.80
13570;BMP180;6856;51.460;7.158;2023-03-14T11:47:00;98521.00;;;11.90
13570;BMP180;6856;51.460;7.158;2023-03-14T11:49:40;98538.00;;;11.90
13570;BMP180;6856;51.460;7.158;2023-03-14T11:52:22;98524.00;;;11.80
13570;BMP180;6856;51.460;7.158;2023-03-14T11:55:07;98555.00;;;11.90
13570;BMP180;6856;51.460;7.158;2023-03-14T11:57:45;98562.00;;;11.90
13570;BMP180;6856;51.460;7.158;2023-03-14T12:00:24;98563.00;;;11.90
13570;BMP180;6856;51.460;7.158;2023-03-14T12:03:11;98595.00;;;11.80
13570;BMP180;6856;51.460;7.158;2023-03-14T12:06:04;98596.00;;;11.80
13570;BMP180;6856;51.460;7.158;2023-03-14T12:08:49;98581.00;;;11.80
13570;BMP180;6856;51.460;7.158;2023-03-14T12:11:39;98596.00;;;11.70
13570;BMP180;6856;51.460;7.158;2023-03-14T12:14:23;98606.00;;;11.70
13570;BMP180;6856;51.460;7.158;2023-03-14T12:17:04;98616.00;;;11.70
13570;BMP180;6856;51.460;7.158;2023-03-14T12:19:40;98626.00;;;11.70
13570;BMP180;6856;51.460;7.158;2023-03-14T12:22:26;98620.00;;;11.60
13570;BMP180;6856;51.460;7.158;2023-03-14T12:25:13;98632.00;;;11.60
13570;BMP180;6856;51.460;7.158;2023-03-14T12:28:18;98634.00;;;11.50
13570;BMP180;6856;51.460;7.158;2023-03-14T12:30:54;98641.00;;;11.60
13570;BMP180;6856;51.460;7.158;2023-03-14T12:33:30;98655.00;;;11.60
13570;BMP180;6856;51.460;7.158;2023-03-14T12:36:54;98655.00;;;11.70
13570;BMP180;6856;51.460;7.158;2023-03-14T12:39:41;98666.00;;;11.70
13570;BMP180;6856;51.460;7.158;2023-03-14T12:42:36;98665.00;;;11.70
13570;BMP180;6856;51.460;7.158;2023-03-14T12:45:28;98674.00;;;11.70
13570;BMP180;6856;51.460;7.158;2023-03-14T12:48:10;98690.00;;;11.70
13570;BMP180;6856;51.460;7.158;2023-03-14T12:50:55;98697.00;;;11.70
13570;BMP180;6856;51.460;7.158;2023-03-14T12:54:09;98707.00;;;11.80
13570;BMP180;6856;51.460;7.158;2023-03-14T12:57:11;98715.00;;;11.80
13570;BMP180;6856;51.460;7.158;2023-03-14T12:59:51;98738.00;;;11.80
13570;BMP180;6856;51.460;7.158;2023-03-14T13:02:30;98748.00;;;11.90
13570;BMP180;6856;51.460;7.158;2023-03-14T13:05:16;98775.00;;;11.90
13570;BMP180;6856;51.460;7.158;2023-03-14T13:08:09;98781.00;;;11.80
13570;BMP180;6856;51.460;7.158;2023-03-14T13:10:48;98783.00;;;11.80
13570;BMP180;6856;51.460;7.158;2023-03-14T13:13:25;98788.00;;;11.70
13570;BMP180;6856;51.460;7.158;2023-03-14T13:16:01;98811.00;;;11.70
13570;BMP180;6856;51.460;7.158;2023-03-14T13:18:43;98817.00;;;11.70
13570;BMP180;6856;51.460;7.158;2023-03-14T13:21:20;98825.00;;;11.70
13570;BMP180;6856;51.460;7.158;2023-03-14T13:23:58;98832.00;;;11.60
13570;BMP180;6856;51.460;7.158;2023-03-14T13:26:36;98820.00;;;11.60
13570;BMP180;6856;51.460;7.158;2023-03-14T13:29:17;98850.00;;;11.70
13570;BMP180;6856;51.460;7.158;2023-03-14T13:31:54;98848.00;;;11.70
13570;BMP180;6856;51.460;7.158;2023-03-14T13:34:34;98859.00;;;11.80
13570;BMP180;6856;51.460;7.158;2023-03-14T13:37:16;98861.00;;;11.80
13570;BMP180;6856;51.460;7.158;2023-03-14T13:39:52;98868.00;;;11.80
13570;BMP180;6856;51.460;7.158;2023-03-14T13:42:29;98870.00;;;11.80
13570;BMP180;6856;51.460;7.158;2023-03-14T13:45:05;98875.00;;;11.90
13570;BMP180;6856;51.460;7.158;2023-03-14T13:47:39;98883.00;;;11.90
13570;BMP180;6856;51.460;7.158;2023-03-14T13:50:18;98808.00;;;11.90
13570;BMP180;6856;51.460;7.158;2023-03-14T13:52:56;98897.00;;;11.90
13570;BMP180;6856;51.460;7.158;2023-03-14T13:55:30;98895.00;;;11.90
13570;BMP180;6856;51.460;7.158;2023-03-14T13:58:04;98897.00;;;11.90
13570;BMP180;6856;51.460;7.158;2023-03-14T14:00:38;98903.00;;;12.00
13570;BMP180;6856;51.460;7.158;2023-03-14T14:03:13;98864.00;;;12.00
13570;BMP180;6856;51.460;7.158;2023-03-14T14:05:49;98908.00;;;12.20
13570;BMP180;6856;51.460;7.158;2023-03-14T14:08:25;98908.00;;;12.20
13570;BMP180;6856;51.460;7.158;2023-03-14T14:11:02;98904.00;;;12.30
13570;BMP180;6856;51.460;7.158;2023-03-14T14:13:37;98915.00;;;12.40
13570;BMP180;6856;51.460;7.158;2023-03-14T14:16:13;98914.00;;;12.40
13570;BMP180;6856;51.460;7.158;2023-03-14T14:18:51;98947.00;;;12.50
13570;BMP180;6856;51.460;7.158;2023-03-14T14:21:28;98933.00;;;12.60
13570;BMP180;6856;51.460;7.158;2023-03-14T14:24:04;98957.00;;;12.60
13570;BMP180;6856;51.460;7.158;2023-03-14T14:26:41;98966.00;;;12.70
13570;BMP180;6856;51.460;7.158;2023-03-14T14:29:28;98965.00;;;12.70
13570;BMP180;6856;51.460;7.158;2023-03-14T14:32:11;98985.00;;;12.70
13570;BMP180;6856;51.460;7.158;2023-03-14T14:34:58;98930.00;;;12.60
13570;BMP180;6856;51.460;7.158;2023-03-14T14:37:43;98979.00;;;12.60
13570;BMP180;6856;51.460;7.158;2023-03-14T14:40:24;98997.00;;;12.60
13570;BMP180;6856;51.460;7.158;2023-03-14T14:43:05;98998.00;;;12.60
13570;BMP180;6856;51.460;7.158;2023-03-14T14:45:42;99004.00;;;12.60
13570;BMP180;6856;51.460;7.158;2023-03-14T14:48:21;99003.00;;;12.60
13570;BMP180;6856;51.460;7.158;2023-03-14T14:50:59;99011.00;;;12.60
13570;BMP180;6856;51.460;7.158;2023-03-14T14:53:39;99006.00;;;12.60
13570;BMP180;6856;51.460;7.158;2023-03-14T14:56:18;98989.00;;;12.60
13570;BMP180;6856;51.460;7.158;2023-03-14T14:58:58;98991.00;;;12.60
13570;BMP180;6856;51.460;7.158;2023-03-14T15:01:36;99018.00;;;12.60
13570;BMP180;6856;51.460;7.158;2023-03-14T15:04:13;99023.00;;;12.50
13570;BMP180;6856;51.460;7.158;2023-03-14T15:06:50;99021.00;;;12.50
13570;BMP180;6856;51.460;7.158;2023-03-14T15:09:26;99040.00;;;12.60
13570;BMP180;6856;51.460;7.158;2023-03-14T15:12:04;99028.00;;;12.50
13570;BMP180;6856;51.460;7.158;2023-03-14T15:14:42;99052.00;;;12.50
13570;BMP180;6856;51.460;7.158;2023-03-14T15:17:16;99014.00;;;12.40
13570;BMP180;6856;51.460;7.158;2023-03-14T15:19:50;99073.00;;;12.40
13570;BMP180;6856;51.460;7.158;2023-03-14T15:22:27;99065.00;;;12.40
13570;BMP180;6856;51.460;7.158;2023-03-14T15:25:03;99087.00;;;12.40